createdAt,value
2024-03-22T00:00:16.317Z,10.4
2024-03-22T00:01:30.737Z,16.4
2024-03-22T00:02:45.035Z,13.9
2024-03-22T00:03:59.249Z,10.9
2024-03-22T00:05:13.592Z,17.3
2024-03-22T00:06:27.867Z,16.6
2024-03-22T00:07:42.280Z,17.2
2024-03-22T00:08:56.606Z,18
2024-03-22T00:10:10.881Z,18.5
2024-03-22T00:11:25.147Z,15.6
2024-03-22T00:12:39.564Z,23.9
2024-03-22T00:13:53.883Z,18.8
2024-03-22T00:15:08.168Z,18.5
2024-03-22T00:16:22.449Z,16.1
2024-03-22T00:17:36.857Z,18.4
2024-03-22T00:18:51.189Z,18.8
2024-03-22T00:20:05.465Z,21.1
2024-03-22T00:21:19.754Z,23.9
2024-03-22T00:22:34.144Z,14.6
2024-03-22T00:23:48.469Z,15.5
2024-03-22T00:25:02.826Z,16
2024-03-22T00:26:16.217Z,20.4
2024-03-22T00:27:30.563Z,16.8
2024-03-22T00:28:43.944Z,17.8
2024-03-22T00:29:58.277Z,17.8
2024-03-22T00:31:12.699Z,23.1
2024-03-22T00:32:27.032Z,19.4
2024-03-22T00:34:54.667Z,16.6
2024-03-22T00:36:09.079Z,18.3
2024-03-22T00:37:23.396Z,15.8
2024-03-22T00:38:37.674Z,19.7
2024-03-22T00:39:51.960Z,17.7
2024-03-22T00:41:06.370Z,19
2024-03-22T00:42:20.685Z,20.4
2024-03-22T00:43:34.973Z,22
2024-03-22T00:44:49.259Z,15.1
2024-03-22T00:46:03.653Z,19.3
2024-03-22T00:47:17.977Z,24.2
2024-03-22T00:48:32.269Z,23.1
2024-03-22T00:49:46.541Z,17.4
2024-03-22T00:51:00.952Z,22.6
2024-03-22T00:52:15.276Z,23.6
2024-03-22T00:53:29.566Z,23.3
2024-03-22T00:54:43.843Z,19.3
2024-03-22T00:57:12.569Z,24
2024-03-22T00:58:26.852Z,19
2024-03-22T00:59:41.134Z,26.9
2024-03-22T01:00:55.534Z,22.8
2024-03-22T01:02:09.867Z,24.6
2024-03-22T01:03:24.136Z,22.6
2024-03-22T01:04:38.485Z,20.4
2024-03-22T01:05:52.897Z,21.6
2024-03-22T01:07:07.224Z,28.4
2024-03-22T01:08:20.578Z,25.5
2024-03-22T01:09:34.854Z,21.3
2024-03-22T01:10:49.273Z,20.3
2024-03-22T01:12:03.586Z,23.5
2024-03-22T01:13:17.881Z,17.3
2024-03-22T01:14:32.194Z,17.9
2024-03-22T01:15:46.483Z,29
2024-03-22T01:17:00.890Z,36.9
2024-03-22T01:18:15.218Z,25.8
2024-03-22T01:19:29.498Z,28.8
2024-03-22T01:20:43.776Z,19.5
2024-03-22T01:21:58.191Z,21
2024-03-22T01:23:12.514Z,22.8
2024-03-22T01:24:26.789Z,25.1
2024-03-22T01:25:41.059Z,26.1
2024-03-22T01:26:55.470Z,25.2
2024-03-22T01:28:09.807Z,28.4
2024-03-22T01:29:24.075Z,26.4
2024-03-22T01:30:38.382Z,24.3
2024-03-22T01:31:52.777Z,23.5
2024-03-22T01:33:07.083Z,19.9
2024-03-22T01:34:21.369Z,17.4
2024-03-22T01:35:35.663Z,27.7
2024-03-22T01:36:50.060Z,21
2024-03-22T01:38:04.396Z,22.3
2024-03-22T01:39:18.734Z,22.6
2024-03-22T01:40:32.073Z,20.9
2024-03-22T01:41:46.397Z,22.7
2024-03-22T01:43:00.687Z,26.5
2024-03-22T01:44:14.964Z,21.4
2024-03-22T01:45:29.380Z,21.2
2024-03-22T01:46:43.692Z,20.7
2024-03-22T01:47:57.979Z,23.6
2024-03-22T01:49:12.256Z,22.1
2024-03-22T01:50:26.656Z,20.2
2024-03-22T01:51:40.990Z,22.1
2024-03-22T01:52:55.262Z,18.6
2024-03-22T01:54:09.551Z,19.6
2024-03-22T01:55:23.956Z,22.8
2024-03-22T01:56:38.291Z,22.4
2024-03-22T01:57:52.568Z,15.9
2024-03-22T01:59:06.836Z,23.2
2024-03-22T02:00:21.251Z,14.6
2024-03-22T02:01:35.575Z,21.2
2024-03-22T02:02:49.852Z,23.3
2024-03-22T02:04:04.143Z,15.7
2024-03-22T02:05:18.548Z,26.4
2024-03-22T02:06:32.867Z,14.5
2024-03-22T02:09:01.426Z,20.3
2024-03-22T02:10:15.846Z,17.5
2024-03-22T02:11:30.228Z,22.5
2024-03-22T02:12:43.612Z,24.2
2024-03-22T02:13:57.951Z,22.2
2024-03-22T02:15:12.376Z,24.4
2024-03-22T02:16:26.695Z,16.2
2024-03-22T02:17:40.062Z,17.7
2024-03-22T02:18:54.344Z,22.4
2024-03-22T02:20:08.751Z,21.2
2024-03-22T02:21:23.068Z,27.1
2024-03-22T02:22:37.346Z,22.5
2024-03-22T02:23:51.624Z,25.9
2024-03-22T02:25:05.990Z,22.6
2024-03-22T02:26:20.304Z,16.5
2024-03-22T02:27:34.582Z,24.8
2024-03-22T02:28:48.858Z,18.3
2024-03-22T02:30:03.266Z,12.6
2024-03-22T02:31:17.598Z,20.3
2024-03-22T02:32:31.883Z,15.8
2024-03-22T02:33:46.161Z,15.6
2024-03-22T02:35:00.573Z,23.3
2024-03-22T02:36:14.889Z,22.9
2024-03-22T02:37:29.176Z,21.1
2024-03-22T02:38:43.452Z,24.8
2024-03-22T02:39:57.852Z,19.1
2024-03-22T02:41:12.195Z,24.1
2024-03-22T02:42:26.475Z,21.1
2024-03-22T02:43:40.749Z,28.2
2024-03-22T02:44:55.164Z,15.2
2024-03-22T02:46:09.473Z,27.4
2024-03-22T02:47:23.767Z,21.1
2024-03-22T02:48:38.103Z,19.7
2024-03-22T02:49:52.504Z,17
2024-03-22T02:51:06.843Z,18.7
2024-03-22T02:52:20.187Z,16
2024-03-22T02:53:34.477Z,22.6
2024-03-22T02:54:48.889Z,18.5
2024-03-22T02:56:03.217Z,20.2
2024-03-22T02:57:17.486Z,22.1
2024-03-22T02:58:31.773Z,21.5
2024-03-22T02:59:46.130Z,17.8
2024-03-22T03:01:00.457Z,22.3
2024-03-22T03:02:14.723Z,19.8
2024-03-22T03:03:29.016Z,18.7
2024-03-22T03:04:43.283Z,19
2024-03-22T03:05:57.694Z,24.7
2024-03-22T03:07:12.028Z,20.9
2024-03-22T03:08:26.306Z,21.5
2024-03-22T03:09:40.578Z,19.3
2024-03-22T03:10:54.980Z,14.7
2024-03-22T03:12:09.314Z,23.1
2024-03-22T03:13:23.602Z,22.5
2024-03-22T03:14:37.864Z,20.2
2024-03-22T03:15:52.281Z,18.4
2024-03-22T03:17:06.584Z,28.7
2024-03-22T03:18:20.865Z,23.8
2024-03-22T03:19:35.129Z,21.7
2024-03-22T03:20:49.535Z,19
2024-03-22T03:22:03.835Z,18.7
2024-03-22T03:23:18.181Z,21.3
2024-03-22T03:24:31.572Z,26.6
2024-03-22T03:25:45.900Z,20
2024-03-22T03:26:59.257Z,29.5
2024-03-22T03:28:13.541Z,15.9
2024-03-22T03:29:27.931Z,18.1
2024-03-22T03:30:42.269Z,13
2024-03-22T03:31:56.543Z,23
2024-03-22T03:33:10.822Z,18
2024-03-22T03:34:25.234Z,18.6
2024-03-22T03:35:39.557Z,21.1
2024-03-22T03:36:53.825Z,17.3
2024-03-22T03:38:08.126Z,22.5
2024-03-22T03:39:22.520Z,22.2
2024-03-22T03:40:36.851Z,20.5
2024-03-22T03:41:51.126Z,20.9
2024-03-22T03:43:05.403Z,17.9
2024-03-22T03:44:19.820Z,18.4
2024-03-22T03:45:34.133Z,20.9
2024-03-22T03:46:48.422Z,20.8
2024-03-22T03:48:02.697Z,18.2
2024-03-22T03:49:17.101Z,21.9
2024-03-22T03:50:31.442Z,22.9
2024-03-22T03:51:45.713Z,21.6
2024-03-22T03:52:59.997Z,21
2024-03-22T03:54:14.411Z,16.9
2024-03-22T03:55:28.734Z,18.5
2024-03-22T03:56:43.037Z,21.9
2024-03-22T03:57:57.340Z,17.1
2024-03-22T03:59:11.755Z,18
2024-03-22T04:00:26.085Z,18.3
2024-03-22T04:01:39.479Z,17.8
2024-03-22T04:02:53.822Z,20.6
2024-03-22T04:04:08.230Z,17.8
2024-03-22T04:05:22.563Z,18.2
2024-03-22T04:06:35.911Z,20.3
2024-03-22T04:07:50.187Z,21.7
2024-03-22T04:09:04.608Z,13.9
2024-03-22T04:10:18.922Z,28.2
2024-03-22T04:11:33.200Z,16.3
2024-03-22T04:12:47.490Z,27.4
2024-03-22T04:14:01.888Z,21
2024-03-22T04:15:16.229Z,21.4
2024-03-22T04:16:30.506Z,19.5
2024-03-22T04:17:44.820Z,17.3
2024-03-22T04:18:59.112Z,21.4
2024-03-22T04:20:13.517Z,20.7
2024-03-22T04:21:27.840Z,21.3
2024-03-22T04:22:42.116Z,17.8
2024-03-22T04:23:56.399Z,21.7
2024-03-22T04:25:10.802Z,18.4
2024-03-22T04:26:25.132Z,21.5
2024-03-22T04:27:39.415Z,17.3
2024-03-22T04:28:53.693Z,19.7
2024-03-22T04:30:08.110Z,15.5
2024-03-22T04:31:22.370Z,20.3
2024-03-22T04:32:36.654Z,23.2
2024-03-22T04:33:50.982Z,23.3
2024-03-22T04:35:05.259Z,23.4
2024-03-22T04:36:19.616Z,16.3
2024-03-22T04:37:33.942Z,16.9
2024-03-22T04:40:01.680Z,21.2
2024-03-22T04:41:16.080Z,20.1
2024-03-22T04:42:30.414Z,19.6
2024-03-22T04:43:43.818Z,18.7
2024-03-22T04:44:57.202Z,19.6
2024-03-22T04:46:11.535Z,20.2
2024-03-22T04:47:25.883Z,22.4
2024-03-22T04:48:39.241Z,24.2
2024-03-22T04:49:53.639Z,19.4
2024-03-22T04:51:07.956Z,16.2
2024-03-22T04:52:22.199Z,20.6
2024-03-22T04:53:36.410Z,13.6
2024-03-22T04:54:50.650Z,18.7
2024-03-22T04:56:04.946Z,14.4
2024-03-22T04:57:19.185Z,18.8
2024-03-22T04:58:33.459Z,19.2
2024-03-22T04:59:47.680Z,25.7
2024-03-22T05:02:16.214Z,21.9
2024-03-22T05:03:30.464Z,15.5
2024-03-22T05:04:44.679Z,21.6
2024-03-22T05:05:58.908Z,19.9
2024-03-22T05:07:13.137Z,16.3
2024-03-22T05:08:27.431Z,16.8
2024-03-22T05:09:41.670Z,15.4
2024-03-22T05:10:55.896Z,16.2
2024-03-22T05:12:10.126Z,20.3
2024-03-22T05:13:24.350Z,19.5
2024-03-22T05:14:38.000Z,20.3
2024-03-22T05:15:52.888Z,23.8
2024-03-22T05:17:07.116Z,16.2
2024-03-22T05:18:21.355Z,17.3
2024-03-22T05:19:35.641Z,17.2
2024-03-22T05:20:49.934Z,11.5
2024-03-22T05:22:04.219Z,16.9
2024-03-22T05:23:17.517Z,20.4
2024-03-22T05:24:31.733Z,14.9
2024-03-22T05:25:46.049Z,19.8
2024-03-22T05:27:00.287Z,21.4
2024-03-22T05:28:14.499Z,19.8
2024-03-22T05:29:28.728Z,18.7
2024-03-22T05:30:42.968Z,14.2
2024-03-22T05:33:11.504Z,13.4
2024-03-22T05:34:25.731Z,16.3
2024-03-22T05:35:39.947Z,22.6
2024-03-22T05:36:54.190Z,13.6
2024-03-22T05:38:08.479Z,13.9
2024-03-22T05:39:22.730Z,15.8
2024-03-22T05:40:36.957Z,16
2024-03-22T05:41:51.175Z,21.9
2024-03-22T05:43:05.404Z,19.7
2024-03-22T05:44:19.698Z,12.6
2024-03-22T05:45:33.940Z,21.1
2024-03-22T05:46:48.169Z,22.6
2024-03-22T05:48:02.401Z,20.2
2024-03-22T05:49:16.617Z,18.1
2024-03-22T05:50:30.918Z,24.3
2024-03-22T05:51:45.170Z,19.7
2024-03-22T05:52:59.390Z,13.1
2024-03-22T05:54:13.674Z,17.7
2024-03-22T05:55:27.011Z,15.9
2024-03-22T05:56:41.285Z,18.9
2024-03-22T05:57:55.568Z,21.2
2024-03-22T05:59:08.875Z,16.5
2024-03-22T06:00:23.179Z,16.4
2024-03-22T06:01:37.420Z,16.6
2024-03-22T06:02:51.637Z,18.6
2024-03-22T06:04:05.863Z,15.7
2024-03-22T06:05:20.094Z,16
2024-03-22T06:06:34.402Z,25.7
2024-03-22T06:07:48.630Z,20.6
2024-03-22T06:09:02.865Z,16.3
2024-03-22T06:10:17.086Z,11.6
2024-03-22T06:11:31.322Z,19.9
2024-03-22T06:12:45.624Z,21.6
2024-03-22T06:13:59.857Z,16.5
2024-03-22T06:15:14.093Z,17.6
2024-03-22T06:16:28.307Z,18.1
2024-03-22T06:17:42.545Z,15.9
2024-03-22T06:18:56.000Z,20
2024-03-22T06:20:11.086Z,13.4
2024-03-22T06:21:25.312Z,21.9
2024-03-22T06:22:39.535Z,20
2024-03-22T06:23:53.755Z,18.4
2024-03-22T06:25:08.059Z,17.1
2024-03-22T06:26:22.310Z,12.2
2024-03-22T06:27:36.525Z,19.3
2024-03-22T06:28:50.748Z,18.8
2024-03-22T06:30:05.049Z,17.4
2024-03-22T06:31:19.340Z,17.8
2024-03-22T06:32:33.623Z,15.3
2024-03-22T06:33:46.932Z,15.2
2024-03-22T06:36:15.455Z,16.2
2024-03-22T06:37:29.690Z,15.7
2024-03-22T06:38:43.923Z,16.4
2024-03-22T06:39:58.146Z,17.9
2024-03-22T06:41:12.363Z,18.7
2024-03-22T06:42:26.663Z,12.7
2024-03-22T06:43:40.919Z,25.8
2024-03-22T06:46:09.356Z,16.5
2024-03-22T06:47:23.582Z,20.6
2024-03-22T06:48:37.900Z,14.7
2024-03-22T06:49:52.142Z,16.4
2024-03-22T06:51:06.364Z,13.3
2024-03-22T06:52:20.581Z,18.6
2024-03-22T06:53:34.809Z,15.6
2024-03-22T06:54:49.116Z,19.2
2024-03-22T06:56:03.350Z,11.3
2024-03-22T06:57:17.572Z,16
2024-03-22T06:58:31.807Z,14.3
2024-03-22T06:59:46.030Z,15.2
2024-03-22T07:01:00.335Z,16.3
2024-03-22T07:02:14.574Z,10.9
2024-03-22T07:03:28.808Z,17.6
2024-03-22T07:04:43.093Z,14.1
2024-03-22T07:05:56.417Z,12.9
2024-03-22T07:07:10.694Z,15.5
2024-03-22T07:08:24.003Z,15.3
2024-03-22T07:09:38.234Z,17.4
2024-03-22T07:10:52.516Z,13.8
2024-03-22T07:12:06.769Z,13.9
2024-03-22T07:13:20.985Z,16.6
2024-03-22T07:14:35.218Z,14.2
2024-03-22T07:15:49.436Z,17.8
2024-03-22T07:17:03.755Z,14.8
2024-03-22T07:18:17.993Z,14.9
2024-03-22T07:19:32.208Z,13.1
2024-03-22T07:20:46.448Z,12.1
2024-03-22T07:22:00.662Z,12.7
2024-03-22T07:23:14.959Z,17.2
2024-03-22T07:24:29.203Z,20
2024-03-22T07:25:43.428Z,15.8
2024-03-22T07:26:57.653Z,11
2024-03-22T07:28:11.878Z,12.2
2024-03-22T07:29:26.193Z,13.8
2024-03-22T07:30:40.429Z,10.4
2024-03-22T07:31:54.664Z,15.6
2024-03-22T07:33:08.888Z,17.1
2024-03-22T07:34:23.099Z,9.7
2024-03-22T07:35:37.404Z,17.3
2024-03-22T07:36:51.642Z,17.5
2024-03-22T07:38:05.882Z,11.6
2024-03-22T07:39:20.155Z,13.5
2024-03-22T07:40:34.446Z,11.3
2024-03-22T07:41:48.734Z,14.8
2024-03-22T07:43:03.030Z,13.2
2024-03-22T07:44:16.351Z,19
2024-03-22T07:45:30.642Z,16.8
2024-03-22T07:46:44.947Z,10
2024-03-22T07:47:59.225Z,14.6
2024-03-22T07:49:12.522Z,12.5
2024-03-22T07:50:26.735Z,14.9
2024-03-22T07:51:41.050Z,19
2024-03-22T07:52:55.284Z,15.2
2024-03-22T07:54:09.516Z,11.3
2024-03-22T07:55:23.748Z,12.5
2024-03-22T07:56:37.969Z,8.6
2024-03-22T07:57:52.274Z,14
2024-03-22T07:59:06.508Z,13.7
2024-03-22T08:00:20.741Z,14.3
2024-03-22T08:01:34.967Z,14.6
2024-03-22T08:02:49.178Z,11.4
2024-03-22T08:04:03.483Z,16.2
2024-03-22T08:05:17.732Z,15.4
2024-03-22T08:06:31.959Z,15.3
2024-03-22T08:07:46.171Z,16.8
2024-03-22T08:09:00.411Z,9.6
2024-03-22T08:10:14.697Z,11.7
2024-03-22T08:11:28.942Z,14.9
2024-03-22T08:12:43.179Z,9.4
2024-03-22T08:13:57.395Z,13.2
2024-03-22T08:15:11.627Z,22.2
2024-03-22T08:16:25.917Z,16
2024-03-22T08:17:40.167Z,10.2
2024-03-22T08:18:54.391Z,13.1
2024-03-22T08:20:08.683Z,14
2024-03-22T08:21:22.001Z,11.7
2024-03-22T08:22:36.302Z,13.4
2024-03-22T08:23:49.652Z,9.8
2024-03-22T08:25:02.946Z,12.7
2024-03-22T08:26:17.190Z,14
2024-03-22T08:27:31.411Z,11.1
2024-03-22T08:28:45.643Z,11.5
2024-03-22T08:29:59.872Z,13.4
2024-03-22T08:31:14.169Z,14.3
2024-03-22T08:32:28.406Z,12.9
2024-03-22T08:33:42.623Z,18.4
2024-03-22T08:34:56.865Z,20.4
2024-03-22T08:36:11.091Z,13.8
2024-03-22T08:37:25.378Z,12.3
2024-03-22T08:38:39.616Z,14.8
2024-03-22T08:39:53.853Z,14.2
2024-03-22T08:41:08.077Z,14.6
2024-03-22T08:42:22.000Z,13
2024-03-22T08:43:36.604Z,14.9
2024-03-22T08:44:50.840Z,12.6
2024-03-22T08:46:05.073Z,11.8
2024-03-22T08:47:19.296Z,12
2024-03-22T08:48:33.519Z,25.6
2024-03-22T08:49:47.832Z,12.5
2024-03-22T08:51:02.070Z,13.7
2024-03-22T08:52:16.285Z,14.9
2024-03-22T08:53:30.525Z,9.5
2024-03-22T08:54:44.738Z,15
2024-03-22T08:55:59.096Z,10.4
2024-03-22T08:57:13.395Z,11.7
2024-03-22T08:58:26.675Z,13.4
2024-03-22T08:59:40.908Z,11.2
2024-03-22T09:00:55.212Z,15.8
2024-03-22T09:02:09.445Z,14
2024-03-22T09:03:23.685Z,18
2024-03-22T09:04:37.907Z,8.9
2024-03-22T09:05:52.120Z,10.8
2024-03-22T09:07:06.424Z,14.9
2024-03-22T09:08:20.663Z,11.7
2024-03-22T09:09:34.906Z,10
2024-03-22T09:10:49.130Z,9.7
2024-03-22T09:12:03.359Z,15.6
2024-03-22T09:13:17.654Z,7.7
2024-03-22T09:14:31.895Z,12.7
2024-03-22T09:15:46.122Z,11.7
2024-03-22T09:17:00.340Z,13.5
2024-03-22T09:18:14.559Z,12.5
2024-03-22T09:19:28.878Z,10.9
2024-03-22T09:20:43.115Z,13.7
2024-03-22T09:21:57.333Z,13.4
2024-03-22T09:23:11.557Z,18.4
2024-03-22T09:24:25.789Z,16.3
2024-03-22T09:25:40.093Z,9.7
2024-03-22T09:26:54.327Z,14.6
2024-03-22T09:28:08.567Z,17.3
2024-03-22T09:29:22.834Z,20.2
2024-03-22T09:30:36.165Z,10.5
2024-03-22T09:31:50.456Z,14.4
2024-03-22T09:33:03.812Z,12.2
2024-03-22T09:34:17.140Z,13.1
2024-03-22T09:35:31.417Z,11.8
2024-03-22T09:36:44.716Z,13.6
2024-03-22T09:37:58.955Z,9.9
2024-03-22T09:39:13.257Z,11.1
2024-03-22T09:40:27.493Z,11.1
2024-03-22T09:41:41.708Z,11.5
2024-03-22T09:42:55.950Z,10.3
2024-03-22T09:44:10.159Z,10.4
2024-03-22T09:45:24.461Z,9.5
2024-03-22T09:46:38.718Z,9.9
2024-03-22T09:47:52.937Z,13.3
2024-03-22T09:49:07.153Z,11.5
2024-03-22T09:50:21.389Z,10.1
2024-03-22T09:51:35.697Z,10
2024-03-22T09:52:49.923Z,12.3
2024-03-22T09:54:04.149Z,10.8
2024-03-22T09:55:18.382Z,10
2024-03-22T09:56:32.616Z,10.7
2024-03-22T09:57:46.916Z,7.2
2024-03-22T09:59:01.141Z,10.4
2024-03-22T10:00:15.385Z,13.5
2024-03-22T10:01:29.609Z,9.6
2024-03-22T10:02:43.838Z,7.1
2024-03-22T10:03:58.130Z,10.5
2024-03-22T10:06:26.590Z,12
2024-03-22T10:07:40.877Z,10.3
2024-03-22T10:08:54.204Z,14.6
2024-03-22T10:10:08.486Z,12.1
2024-03-22T10:11:21.843Z,19.3
2024-03-22T10:12:36.126Z,11.1
2024-03-22T10:13:50.439Z,8.9
2024-03-22T10:15:04.714Z,10.9
2024-03-22T10:16:18.039Z,12.6
2024-03-22T10:17:31.336Z,10.3
2024-03-22T10:18:45.576Z,10.5
2024-03-22T10:19:59.813Z,7.6
2024-03-22T10:21:14.029Z,9.2
2024-03-22T10:22:28.268Z,6.1
2024-03-22T10:23:42.564Z,9.2
2024-03-22T10:24:56.803Z,7.5
2024-03-22T10:26:11.036Z,13.8
2024-03-22T10:27:25.258Z,8.7
2024-03-22T10:28:39.491Z,9.5
2024-03-22T10:29:53.785Z,13.2
2024-03-22T10:31:08.030Z,9.8
2024-03-22T10:32:22.245Z,8.9
2024-03-22T10:33:36.485Z,10.3
2024-03-22T10:34:50.711Z,11.6
2024-03-22T10:36:04.998Z,9.9
2024-03-22T10:37:19.246Z,8.8
2024-03-22T10:38:33.475Z,11.5
2024-03-22T10:39:47.701Z,10.6
2024-03-22T10:41:01.916Z,11.2
2024-03-22T10:42:16.214Z,12.5
2024-03-22T10:43:30.473Z,8.4
2024-03-22T10:44:44.691Z,10.3
2024-03-22T10:45:58.924Z,8.8
2024-03-22T10:47:13.153Z,12.5
2024-03-22T10:48:27.501Z,8.5
2024-03-22T10:49:41.778Z,11.1
2024-03-22T10:50:55.133Z,8.7
2024-03-22T10:52:09.415Z,12.3
2024-03-22T10:53:23.718Z,10.7
2024-03-22T10:54:37.995Z,12.3
2024-03-22T10:55:51.298Z,9.2
2024-03-22T10:57:05.515Z,12.4
2024-03-22T10:58:19.809Z,11.7
2024-03-22T10:59:34.059Z,9.5
2024-03-22T11:00:48.289Z,11.1
2024-03-22T11:02:02.503Z,11.2
2024-03-22T11:03:16.742Z,11.1
2024-03-22T11:04:31.044Z,10.3
2024-03-22T11:05:45.289Z,12.1
2024-03-22T11:06:59.508Z,15.5
2024-03-22T11:08:13.730Z,12.1
2024-03-22T11:09:27.955Z,8.5
2024-03-22T11:10:42.252Z,12.2
2024-03-22T11:11:56.501Z,11.4
2024-03-22T11:13:10.733Z,10.8
2024-03-22T11:14:24.954Z,7.9
2024-03-22T11:15:39.177Z,9.5
2024-03-22T11:16:53.481Z,13.3
2024-03-22T11:18:07.729Z,7.4
2024-03-22T11:19:21.947Z,10.1
2024-03-22T11:20:36.164Z,13.5
2024-03-22T11:21:50.400Z,9.3
2024-03-22T11:23:04.706Z,11.7
2024-03-22T11:24:18.943Z,9.6
2024-03-22T11:25:33.161Z,14.6
2024-03-22T11:26:47.451Z,9.5
2024-03-22T11:28:00.789Z,13.3
2024-03-22T11:29:15.076Z,10
2024-03-22T11:30:28.430Z,9.5
2024-03-22T11:31:41.758Z,12.9
2024-03-22T11:32:56.000Z,10.1
2024-03-22T11:34:09.326Z,13.3
2024-03-22T11:35:23.563Z,12.3
2024-03-22T11:36:37.865Z,12.6
2024-03-22T11:37:52.098Z,10.5
2024-03-22T11:39:06.320Z,10.6
2024-03-22T11:40:20.554Z,11.5
2024-03-22T11:41:34.771Z,9.9
2024-03-22T11:42:49.076Z,7.3
2024-03-22T11:44:03.311Z,15.3
2024-03-22T11:45:17.541Z,15.1
2024-03-22T11:46:31.780Z,11.6
2024-03-22T11:47:46.001Z,11
2024-03-22T11:49:00.300Z,12.9
2024-03-22T11:50:14.535Z,11.3
2024-03-22T11:51:28.774Z,12.1
2024-03-22T11:52:42.988Z,15.3
2024-03-22T11:55:11.521Z,9
2024-03-22T11:56:25.751Z,10.2
2024-03-22T11:57:39.989Z,13.6
2024-03-22T11:58:54.217Z,10.5
2024-03-22T12:00:08.435Z,16.6
2024-03-22T12:01:22.735Z,11.9
2024-03-22T12:02:36.975Z,9.6
2024-03-22T12:03:51.208Z,12.5
2024-03-22T12:05:05.497Z,15.4
2024-03-22T12:06:18.829Z,14
2024-03-22T12:07:33.115Z,11.4
2024-03-22T12:08:46.407Z,10.1
2024-03-22T12:10:00.637Z,12.8
2024-03-22T12:11:14.928Z,13.3
2024-03-22T12:12:29.178Z,13.3
2024-03-22T12:13:43.402Z,9.9
2024-03-22T12:14:57.629Z,10.3
2024-03-22T12:16:11.849Z,12.7
2024-03-22T12:17:26.156Z,12
2024-03-22T12:18:40.389Z,13.4
2024-03-22T12:19:54.620Z,15.9
2024-03-22T12:21:08.835Z,12.7
2024-03-22T12:22:23.069Z,11.4
2024-03-22T12:23:37.377Z,9.4
2024-03-22T12:24:51.619Z,10
2024-03-22T12:26:05.836Z,13.5
2024-03-22T12:27:20.065Z,14.1
2024-03-22T12:28:34.293Z,10.8
2024-03-22T12:29:48.599Z,14.2
2024-03-22T12:31:02.837Z,12.9
2024-03-22T12:32:17.055Z,9.3
2024-03-22T12:33:31.280Z,13.4
2024-03-22T12:34:45.521Z,13.9
2024-03-22T12:35:59.807Z,12.2
2024-03-22T12:37:14.061Z,11.5
2024-03-22T12:38:28.287Z,12.1
2024-03-22T12:39:42.561Z,15.7
2024-03-22T12:40:55.905Z,14.3
2024-03-22T12:42:10.181Z,12.6
2024-03-22T12:43:24.470Z,14
2024-03-22T12:44:38.755Z,14.6
2024-03-22T12:45:52.035Z,15.6
2024-03-22T12:47:06.273Z,14.8
2024-03-22T12:48:20.513Z,16.8
2024-03-22T12:49:34.732Z,15.5
2024-03-22T12:50:48.959Z,14.6
2024-03-22T12:52:03.261Z,13.4
2024-03-22T12:53:17.505Z,15.6
2024-03-22T12:54:31.727Z,9.3
2024-03-22T12:55:45.953Z,18.6
2024-03-22T12:57:00.173Z,14.1
2024-03-22T12:58:14.490Z,13.8
2024-03-22T12:59:28.714Z,14.4
2024-03-22T13:00:42.959Z,18.8
2024-03-22T13:01:57.173Z,13.8
2024-03-22T13:03:11.396Z,16.2
2024-03-22T13:04:25.706Z,18.1
2024-03-22T13:05:39.941Z,12
2024-03-22T13:06:54.171Z,12.9
2024-03-22T13:08:08.396Z,16.7
2024-03-22T13:09:22.626Z,16.3
2024-03-22T13:10:36.929Z,14.5
2024-03-22T13:11:51.162Z,13.8
2024-03-22T13:13:05.386Z,16.1
2024-03-22T13:14:19.621Z,15.3
2024-03-22T13:15:33.839Z,21.8
2024-03-22T13:16:48.209Z,14
2024-03-22T13:18:02.489Z,12.7
2024-03-22T13:19:15.772Z,18.1
2024-03-22T13:20:30.015Z,15
2024-03-22T13:21:44.300Z,16.1
2024-03-22T13:22:58.546Z,11.5
2024-03-22T13:24:12.782Z,17.1
2024-03-22T13:25:27.006Z,17.3
2024-03-22T13:26:41.235Z,11.1
2024-03-22T13:27:55.534Z,16.2
2024-03-22T13:29:09.773Z,12.5
2024-03-22T13:31:38.225Z,14.5
2024-03-22T13:32:52.447Z,17.7
2024-03-22T13:34:06.745Z,14.6
2024-03-22T13:35:20.994Z,14.6
2024-03-22T13:36:35.210Z,12.2
2024-03-22T13:37:49.437Z,12.5
2024-03-22T13:39:03.657Z,12.4
2024-03-22T13:40:17.968Z,11.3
2024-03-22T13:41:32.203Z,19.1
2024-03-22T13:42:46.435Z,13.8
2024-03-22T13:44:00.666Z,17.8
2024-03-22T13:45:14.893Z,19
2024-03-22T13:46:29.194Z,14.2
2024-03-22T13:47:43.435Z,15.6
2024-03-22T13:48:57.644Z,12.9
2024-03-22T13:50:11.931Z,9.9
2024-03-22T13:51:25.240Z,12.6
2024-03-22T13:52:39.476Z,18.4
2024-03-22T13:53:53.709Z,18.3
2024-03-22T13:55:07.930Z,13.5
2024-03-22T13:56:22.155Z,11.4
2024-03-22T13:57:36.445Z,12.7
2024-03-22T13:58:50.702Z,8.7
2024-03-22T14:00:04.000Z,16.4
2024-03-22T14:01:19.157Z,9.3
2024-03-22T14:02:33.377Z,10.7
2024-03-22T14:03:47.675Z,11.6
2024-03-22T14:05:01.922Z,11.7
2024-03-22T14:06:16.146Z,15.2
2024-03-22T14:07:30.366Z,10.4
2024-03-22T14:08:44.592Z,13.1
2024-03-22T14:09:58.895Z,14
2024-03-22T14:11:13.145Z,16.2
2024-03-22T14:12:27.356Z,10.6
2024-03-22T14:13:41.584Z,14.4
2024-03-22T14:14:55.810Z,10.8
2024-03-22T14:16:10.106Z,9.9
2024-03-22T14:17:24.351Z,16.5
2024-03-22T14:18:38.574Z,15.5
2024-03-22T14:19:52.816Z,12.3
2024-03-22T14:21:07.033Z,14
2024-03-22T14:22:21.404Z,12.7
2024-03-22T14:23:35.681Z,11.7
2024-03-22T14:24:49.019Z,12.2
2024-03-22T14:26:03.294Z,10
2024-03-22T14:27:17.594Z,11.8
2024-03-22T14:28:31.869Z,15.5
2024-03-22T14:29:46.164Z,11.8
2024-03-22T14:30:59.457Z,15.4
2024-03-22T14:32:13.761Z,15.8
2024-03-22T14:33:27.999Z,13
2024-03-22T14:34:42.225Z,11.6
2024-03-22T14:37:10.676Z,13.4
2024-03-22T14:38:24.979Z,15
2024-03-22T14:39:39.212Z,10.2
2024-03-22T14:40:53.438Z,8.7
2024-03-22T14:42:07.665Z,13.2
2024-03-22T14:43:21.903Z,13
2024-03-22T14:44:36.202Z,15.2
2024-03-22T14:45:50.440Z,12
2024-03-22T14:47:04.656Z,14.2
2024-03-22T14:48:18.887Z,16.9
2024-03-22T14:49:33.241Z,14.4
2024-03-22T14:50:47.531Z,14.7
2024-03-22T14:52:01.772Z,10.4
2024-03-22T14:53:16.001Z,12.6
2024-03-22T14:54:30.234Z,13
2024-03-22T14:55:44.454Z,12.7
2024-03-22T14:56:58.757Z,15.1
2024-03-22T14:58:13.008Z,11.8
2024-03-22T14:59:27.230Z,12.7
2024-03-22T15:00:41.465Z,16.6
2024-03-22T15:01:55.688Z,11
2024-03-22T15:03:09.980Z,13.4
2024-03-22T15:04:24.222Z,15.3
2024-03-22T15:05:38.456Z,10.9
2024-03-22T15:06:52.673Z,12.5
2024-03-22T15:08:06.910Z,11.3
2024-03-22T15:09:21.213Z,11.2
2024-03-22T15:10:35.451Z,17.2
2024-03-22T15:11:49.681Z,11.8
2024-03-22T15:13:03.907Z,11.9
2024-03-22T15:14:18.115Z,12.8
2024-03-22T15:15:32.432Z,11.2
2024-03-22T15:16:46.655Z,10.7
2024-03-22T15:18:00.886Z,9.6
2024-03-22T15:19:15.119Z,17.8
2024-03-22T15:20:29.345Z,10.9
2024-03-22T15:21:43.636Z,10.7
2024-03-22T15:22:57.879Z,17.3
2024-03-22T15:24:12.113Z,13
2024-03-22T15:25:26.335Z,12.9
2024-03-22T15:26:40.565Z,11.6
2024-03-22T15:27:54.862Z,9.7
2024-03-22T15:29:09.101Z,12.2
2024-03-22T15:30:23.340Z,12.7
2024-03-22T15:31:37.552Z,14
2024-03-22T15:32:51.792Z,12.6
2024-03-22T15:34:06.095Z,12.3
2024-03-22T15:35:20.395Z,18.7
2024-03-22T15:36:33.732Z,11.1
2024-03-22T15:37:48.012Z,11.5
2024-03-22T15:39:02.303Z,13.3
2024-03-22T15:40:16.590Z,12.6
2024-03-22T15:41:29.895Z,14.5
2024-03-22T15:42:44.120Z,12.7
2024-03-22T15:43:58.420Z,11.6
2024-03-22T15:45:12.662Z,10.8
2024-03-22T15:46:26.896Z,10.1
2024-03-22T15:47:41.121Z,9.3
2024-03-22T15:48:55.347Z,12.6
2024-03-22T15:50:09.631Z,14.2
2024-03-22T15:51:23.873Z,12.9
2024-03-22T15:52:38.107Z,15.3
2024-03-22T15:55:06.554Z,12.4
2024-03-22T15:56:20.859Z,13.7
2024-03-22T15:57:35.104Z,15.1
2024-03-22T15:58:49.331Z,12.2
2024-03-22T16:00:03.552Z,13.4
2024-03-22T16:01:17.784Z,15.5
2024-03-22T16:02:32.080Z,13.2
2024-03-22T16:03:46.319Z,13.3
2024-03-22T16:05:00.552Z,13.7
2024-03-22T16:06:14.784Z,11.2
2024-03-22T16:07:29.010Z,9.5
2024-03-22T16:08:43.301Z,16.1
2024-03-22T16:09:57.552Z,11.7
2024-03-22T16:11:11.763Z,12.2
2024-03-22T16:12:26.063Z,13.9
2024-03-22T16:13:39.390Z,12.4
2024-03-22T16:14:53.682Z,11.5
2024-03-22T16:16:06.961Z,14.4
2024-03-22T16:17:21.204Z,14.8
2024-03-22T16:18:35.494Z,12.2
2024-03-22T16:19:49.734Z,9
2024-03-22T16:21:03.971Z,15.1
2024-03-22T16:22:18.188Z,10.6
2024-03-22T16:23:32.414Z,10
2024-03-22T16:24:46.713Z,13.8
2024-03-22T16:26:00.951Z,10.3
2024-03-22T16:27:15.180Z,9.9
2024-03-22T16:28:29.417Z,10.5
2024-03-22T16:29:43.634Z,12.1
2024-03-22T16:30:57.931Z,7.6
2024-03-22T16:32:12.169Z,9.8
2024-03-22T16:33:26.411Z,7.3
2024-03-22T16:34:40.627Z,8.6
2024-03-22T16:35:54.866Z,10.1
2024-03-22T16:37:09.160Z,9.3
2024-03-22T16:38:23.395Z,11.8
2024-03-22T16:39:37.617Z,8.3
2024-03-22T16:40:51.855Z,10
2024-03-22T16:42:06.073Z,7.1
2024-03-22T16:43:20.369Z,8.2
2024-03-22T16:44:34.610Z,6.6
2024-03-22T16:45:48.842Z,7.4
2024-03-22T16:47:03.123Z,6.9
2024-03-22T16:48:16.466Z,5.7
2024-03-22T16:49:30.740Z,11.1
2024-03-22T16:50:44.040Z,12.1
2024-03-22T16:51:58.273Z,10.2